Time;durP1;ratioP1;P1;durP2;ratioP2;P2;SDS_P1;SDS_P2;PMS_P1;PMS_P2;Temp;Humidity;BMP_temperature;BMP_pressure;BME280_temperature;BME280_humidity;BME280_pressure;Samples;Min_cycle;Max_cycle;Signal;HPM_P1;HPM_P2
2021/01/01 00:00:27;;;;;;;36.53;20.50;;;;;;;2.94;100.00;101021.69;1840561;78;26242;-79
2021/01/01 00:02:59;;;;;;;36.03;20.57;;;;;;;2.89;100.00;101016.05;1840345;78;26249;-80
2021/01/01 00:05:28;;;;;;;35.77;19.87;;;;;;;2.87;100.00;101019.58;1840272;78;26335;-80
2021/01/01 00:07:58;;;;;;;41.60;20.93;;;;;;;2.81;100.00;101015.84;1840303;78;26330;-80
2021/01/01 00:10:28;;;;;;;40.00;21.57;;;;;;;2.75;100.00;101025.82;1840430;78;26357;-79
2021/01/01 00:12:59;;;;;;;39.70;22.27;;;;;;;2.88;100.00;101026.72;1840388;78;26716;-79
2021/01/01 00:15:29;;;;;;;42.13;21.50;;;;;;;2.86;100.00;101028.88;1840410;78;26224;-79
2021/01/01 00:17:59;;;;;;;41.17;21.40;;;;;;;2.85;100.00;101032.14;1840332;78;26294;-80
2021/01/01 00:20:29;;;;;;;42.23;23.33;;;;;;;2.80;100.00;101029.78;1840321;78;26204;-80
2021/01/01 00:22:59;;;;;;;42.20;22.73;;;;;;;2.82;100.00;101034.52;1840216;78;26264;-79
2021/01/01 00:25:29;;;;;;;44.40;23.67;;;;;;;2.81;100.00;101028.72;1840296;78;26214;-80
2021/01/01 00:27:59;;;;;;;46.00;24.63;;;;;;;2.82;100.00;101025.75;1840301;78;26330;-80
2021/01/01 00:30:29;;;;;;;44.87;23.93;;;;;;;2.75;100.00;101033.20;1840416;78;26286;-80
2021/01/01 00:32:58;;;;;;;43.07;23.83;;;;;;;2.72;100.00;101039.16;1840356;78;26261;-80
2021/01/01 00:35:28;;;;;;;47.37;23.33;;;;;;;2.74;100.00;101030.99;1840246;78;26318;-80
2021/01/01 00:37:58;;;;;;;44.30;24.37;;;;;;;2.74;100.00;101036.48;1840241;78;26719;-80
2021/01/01 00:40:28;;;;;;;43.77;23.47;;;;;;;2.79;100.00;101035.80;1840448;78;26217;-80
2021/01/01 00:42:58;;;;;;;44.30;24.57;;;;;;;2.79;100.00;101034.95;1840333;78;26224;-80
2021/01/01 00:45:28;;;;;;;46.00;25.47;;;;;;;2.85;100.00;101033.52;1840399;78;26298;-80
2021/01/01 00:47:58;;;;;;;50.23;28.73;;;;;;;2.85;100.00;101029.40;1840355;78;26338;-80
2021/01/01 00:50:28;;;;;;;50.60;30.67;;;;;;;2.69;100.00;101030.88;1840359;78;26700;-80
2021/01/01 00:52:57;;;;;;;54.50;29.53;;;;;;;2.70;100.00;101033.05;1840372;78;26217;-81
2021/01/01 00:55:27;;;;;;;52.40;27.53;;;;;;;2.72;100.00;101035.89;1840403;78;26232;-81
2021/01/01 00:57:59;;;;;;;56.20;31.53;;;;;;;2.71;100.00;101038.31;1840483;78;26224;-80
2021/01/01 01:00:29;;;;;;;61.90;33.57;;;;;;;2.66;100.00;101043.65;1840517;78;26229;-82
2021/01/01 01:02:59;;;;;;;64.03;37.20;;;;;;;2.64;100.00;101037.56;1840354;78;26232;-81
2021/01/01 01:05:29;;;;;;;74.37;41.97;;;;;;;2.65;100.00;101043.33;1840515;78;26213;-81
2021/01/01 01:07:58;;;;;;;83.13;47.63;;;;;;;2.71;100.00;101054.77;1840406;78;26656;-80
2021/01/01 01:10:28;;;;;;;73.03;42.30;;;;;;;2.55;100.00;101044.95;1840359;78;26644;-80
2021/01/01 01:12:58;;;;;;;79.30;47.20;;;;;;;2.64;100.00;101046.33;1840327;78;26670;-80
2021/01/01 01:15:28;;;;;;;80.90;48.27;;;;;;;2.67;100.00;101046.70;1840242;78;26229;-80
2021/01/01 01:17:58;;;;;;;82.27;44.63;;;;;;;2.65;100.00;101043.33;1840352;78;26314;-80
2021/01/01 01:20:28;;;;;;;73.60;41.17;;;;;;;2.65;100.00;101041.96;1840210;78;26260;-80
2021/01/01 01:22:58;;;;;;;70.20;39.43;;;;;;;2.69;100.00;101045.95;1840207;78;26755;-80
2021/01/01 01:25:28;;;;;;;76.03;40.53;;;;;;;2.61;100.00;101040.74;1840271;78;26684;-80
2021/01/01 01:27:58;;;;;;;67.67;39.90;;;;;;;2.49;100.00;101043.10;1840286;78;26837;-80
2021/01/01 01:30:28;;;;;;;65.80;38.53;;;;;;;2.47;100.00;101040.61;1840292;78;26232;-80
2021/01/01 01:32:58;;;;;;;62.20;35.37;;;;;;;2.58;100.00;101035.73;1840304;78;26749;-80
2021/01/01 01:35:29;;;;;;;63.23;36.17;;;;;;;2.50;100.00;101040.14;1840273;78;26221;-80
2021/01/01 01:37:59;;;;;;;74.87;38.83;;;;;;;2.60;100.00;101051.44;1840352;78;26232;-80
2021/01/01 01:40:28;;;;;;;73.47;39.17;;;;;;;2.56;100.00;101061.71;1840392;78;26302;-80
2021/01/01 01:42:58;;;;;;;72.43;37.30;;;;;;;2.66;100.00;101060.63;1840269;78;26302;-80
2021/01/01 01:45:28;;;;;;;67.60;37.53;;;;;;;2.48;100.00;101066.94;1840299;78;26215;-80
2021/01/01 01:48:00;;;;;;;75.63;39.13;;;;;;;2.60;100.00;101072.53;1840363;78;26780;-81
2021/01/01 01:50:30;;;;;;;74.60;40.13;;;;;;;2.50;100.00;101067.56;1840313;78;26224;-82
2021/01/01 01:53:00;;;;;;;72.47;38.60;;;;;;;2.43;100.00;101074.19;1840225;78;26217;-81
2021/01/01 01:55:31;;;;;;;69.57;36.90;;;;;;;2.59;100.00;101070.84;1840177;78;26236;-81
2021/01/01 01:58:02;;;;;;;69.17;37.40;;;;;;;2.59;100.00;101078.55;1840254;78;26213;-81
2021/01/01 02:00:57;;;;;;;66.13;35.37;;;;;;;2.54;100.00;101082.48;1840271;78;26674;-81
2021/01/01 02:03:26;;;;;;;71.97;36.77;;;;;;;2.53;100.00;101080.81;1840175;78;26272;-80
2021/01/01 02:05:57;;;;;;;70.77;36.07;;;;;;;2.39;100.00;101082.03;1840226;78;26675;-80
2021/01/01 02:08:28;;;;;;;71.83;37.17;;;;;;;2.34;100.00;101081.86;1840260;78;26212;-81
2021/01/01 02:10:59;;;;;;;68.40;35.67;;;;;;;2.32;100.00;101092.73;1840260;78;26225;-80
2021/01/01 02:13:30;;;;;;;73.73;35.93;;;;;;;2.23;100.00;101084.80;1840278;78;26319;-82
2021/01/01 02:16:01;;;;;;;63.33;34.10;;;;;;;2.21;100.00;101085.56;1840187;78;26682;-82
2021/01/01 02:18:41;;;;;;;60.10;31.73;;;;;;;2.25;100.00;101086.79;1840232;78;26792;-81
2021/01/01 02:21:14;;;;;;;52.33;26.50;;;;;;;2.40;100.00;101089.16;1840230;78;26651;-81
2021/01/01 02:23:45;;;;;;;50.53;26.63;;;;;;;2.44;100.00;101093.69;1840203;78;26683;-82
2021/01/01 02:26:16;;;;;;;45.63;23.43;;;;;;;2.46;100.00;101100.61;1840300;78;26790;-81
2021/01/01 02:28:46;;;;;;;41.97;23.47;;;;;;;2.31;100.00;101101.47;1840280;78;26651;-81
2021/01/01 02:31:16;;;;;;;47.27;23.13;;;;;;;2.43;100.00;101105.19;1840225;78;26358;-80
2021/01/01 02:33:46;;;;;;;41.30;21.97;;;;;;;2.38;100.00;101112.39;1840273;78;26216;-79
2021/01/01 02:36:15;;;;;;;38.40;20.63;;;;;;;2.37;100.00;101110.18;1840328;78;26801;-79
2021/01/01 02:38:46;;;;;;;38.07;20.43;;;;;;;2.16;100.00;101114.17;1840296;78;26287;-79
2021/01/01 02:41:16;;;;;;;35.07;19.93;;;;;;;2.25;100.00;101106.50;1840221;78;26746;-80
2021/01/01 02:43:46;;;;;;;33.67;18.83;;;;;;;2.28;100.00;101109.62;1840202;78;26221;-80
2021/01/01 02:46:16;;;;;;;32.30;18.83;;;;;;;2.29;100.00;101122.27;1840216;78;26228;-80
2021/01/01 02:48:46;;;;;;;35.43;18.87;;;;;;;2.25;100.00;101120.20;1840182;78;26260;-80
2021/01/01 02:51:16;;;;;;;31.63;17.50;;;;;;;2.20;100.00;101121.41;1840255;78;26683;-80
2021/01/01 02:53:45;;;;;;;32.57;18.30;;;;;;;2.11;100.00;101118.63;1840262;78;26220;-80
2021/01/01 02:56:18;;;;;;;37.03;19.83;;;;;;;2.11;100.00;101126.33;1840245;78;26353;-80
2021/01/01 02:58:47;;;;;;;36.87;18.60;;;;;;;2.09;100.00;101129.84;1840271;78;26244;-79
2021/01/01 03:01:21;;;;;;;31.67;17.70;;;;;;;2.08;100.00;101128.15;1840281;78;26294;-79
2021/01/01 03:03:51;;;;;;;36.43;18.83;;;;;;;2.15;100.00;101134.41;1840230;78;26231;-80
2021/01/01 03:06:20;;;;;;;34.43;17.73;;;;;;;2.13;100.00;101132.44;1840192;78;26771;-80
2021/01/01 03:08:50;;;;;;;31.87;18.13;;;;;;;2.00;100.00;101129.80;1840262;78;26699;-80
2021/01/01 03:11:22;;;;;;;31.07;17.03;;;;;;;2.01;100.00;101127.34;1840215;78;26256;-80
2021/01/01 03:13:52;;;;;;;31.90;16.90;;;;;;;1.90;100.00;101129.44;1840233;78;26345;-81
2021/01/01 03:16:22;;;;;;;34.77;17.17;;;;;;;1.77;100.00;101123.52;1840232;78;26287;-82
2021/01/01 03:18:52;;;;;;;35.33;17.20;;;;;;;1.75;100.00;101127.00;1840241;78;26641;-81
2021/01/01 03:21:23;;;;;;;32.30;17.33;;;;;;;1.76;100.00;101132.79;1840260;78;26205;-80
2021/01/01 03:23:52;;;;;;;30.80;15.90;;;;;;;1.74;100.00;101133.55;1840167;78;26253;-79
2021/01/01 03:26:23;;;;;;;28.60;16.40;;;;;;;1.67;100.00;101126.45;1840258;78;26303;-79
2021/01/01 03:28:53;;;;;;;31.70;16.03;;;;;;;1.80;100.00;101128.55;1840125;78;26228;-80
2021/01/01 03:31:24;;;;;;;28.77;16.67;;;;;;;1.94;100.00;101132.04;1840224;78;26297;-80
2021/01/01 03:33:54;;;;;;;33.63;17.00;;;;;;;1.83;100.00;101123.18;1840219;78;26682;-80
2021/01/01 03:36:24;;;;;;;30.53;16.27;;;;;;;1.78;100.00;101126.58;1840185;78;26725;-80
2021/01/01 03:38:56;;;;;;;29.67;15.53;;;;;;;1.74;100.00;101119.02;1840229;78;26224;-80
2021/01/01 03:41:26;;;;;;;29.77;15.60;;;;;;;1.63;100.00;101127.39;1840220;78;26334;-81
2021/01/01 03:43:55;;;;;;;29.70;15.13;;;;;;;1.60;100.00;101126.47;1840226;78;26221;-80
2021/01/01 03:46:25;;;;;;;25.20;13.67;;;;;;;1.67;100.00;101125.08;1840165;78;26295;-81
2021/01/01 03:48:55;;;;;;;28.00;15.17;;;;;;;1.67;100.00;101131.92;1840171;78;26323;-81
2021/01/01 03:51:25;;;;;;;27.00;14.10;;;;;;;1.76;100.00;101126.47;1840238;78;26228;-80
2021/01/01 03:53:55;;;;;;;27.67;16.20;;;;;;;1.65;100.00;101131.30;1840209;78;26252;-80
2021/01/01 03:56:25;;;;;;;26.70;14.37;;;;;;;1.71;100.00;101127.69;1840222;78;26295;-80
2021/01/01 03:58:55;;;;;;;27.67;14.03;;;;;;;1.73;100.00;101122.81;1840297;78;26385;-80
2021/01/01 04:01:24;;;;;;;29.47;14.30;;;;;;;1.66;100.00;101124.23;1840179;78;26225;-81
2021/01/01 04:03:54;;;;;;;26.43;14.27;;;;;;;1.62;100.00;101127.11;1840198;78;26671;-81
2021/01/01 04:06:25;;;;;;;21.70;11.67;;;;;;;1.52;100.00;101124.52;1840172;78;26302;-81
2021/01/01 04:08:55;;;;;;;28.33;13.63;;;;;;;1.47;100.00;101122.44;1840264;78;26220;-80
2021/01/01 04:11:26;;;;;;;24.67;13.73;;;;;;;1.38;100.00;101130.06;1840188;78;26257;-80
2021/01/01 04:13:56;;;;;;;25.37;13.53;;;;;;;1.34;100.00;101126.61;1840185;78;26224;-80
2021/01/01 04:16:26;;;;;;;27.47;12.97;;;;;;;1.33;100.00;101125.77;1840092;78;26676;-81
2021/01/01 04:18:55;;;;;;;23.27;13.13;;;;;;;1.33;100.00;101128.51;1840246;78;26224;-80
2021/01/01 04:21:25;;;;;;;22.83;13.10;;;;;;;1.22;100.00;101129.20;1840233;78;26278;-80
2021/01/01 04:23:55;;;;;;;27.83;13.87;;;;;;;1.28;100.00;101128.87;1840303;78;26249;-80
2021/01/01 04:26:25;;;;;;;22.83;12.77;;;;;;;1.48;100.00;101132.87;1840277;78;26681;-81
2021/01/01 04:28:55;;;;;;;26.53;14.47;;;;;;;1.50;100.00;101135.68;1840341;78;26276;-80
2021/01/01 04:31:26;;;;;;;23.27;13.00;;;;;;;1.52;100.00;101134.10;1840277;78;26657;-80
2021/01/01 04:33:56;;;;;;;24.43;13.30;;;;;;;1.44;100.00;101137.09;1840289;78;26224;-79
2021/01/01 04:36:26;;;;;;;28.40;14.27;;;;;;;1.39;100.00;101135.02;1840239;78;26263;-79
2021/01/01 04:38:56;;;;;;;26.43;13.27;;;;;;;1.36;100.00;101136.83;1840310;78;26394;-79
2021/01/01 04:41:26;;;;;;;25.37;13.13;;;;;;;1.35;100.00;101138.72;1840295;78;26691;-79
2021/01/01 04:43:56;;;;;;;23.77;13.10;;;;;;;1.39;100.00;101135.02;1840300;78;26682;-80
2021/01/01 04:46:26;;;;;;;25.57;14.13;;;;;;;1.41;100.00;101132.91;1840260;78;26249;-80
2021/01/01 04:48:57;;;;;;;25.50;13.67;;;;;;;1.47;100.00;101136.66;1840273;78;26343;-80
2021/01/01 04:51:27;;;;;;;23.87;13.63;;;;;;;1.44;100.00;101124.26;1840229;78;26315;-81
2021/01/01 04:53:58;;;;;;;30.60;14.47;;;;;;;1.37;100.00;101128.91;1840206;78;26310;-80
2021/01/01 04:56:28;;;;;;;26.20;14.63;;;;;;;1.34;100.00;101130.72;1840161;78;26217;-81
2021/01/01 04:58:59;;;;;;;32.13;14.97;;;;;;;1.22;100.00;101125.09;1840305;78;26291;-81
2021/01/01 05:01:29;;;;;;;26.97;13.73;;;;;;;1.47;100.00;101126.55;1844394;77;934908;-81
2021/01/01 05:03:59;;;;;;;26.73;14.17;;;;;;;1.48;100.00;101127.39;1861065;77;26274;-81
2021/01/01 05:06:33;;;;;;;25.40;13.67;;;;;;;1.39;100.00;101129.54;1860954;77;26224;-81
2021/01/01 05:09:05;;;;;;;27.13;14.40;;;;;;;1.32;100.00;101138.33;1860971;77;26204;-81
2021/01/01 05:11:36;;;;;;;27.60;13.67;;;;;;;1.37;100.00;101137.95;1861004;77;26326;-81
2021/01/01 05:14:07;;;;;;;28.07;13.73;;;;;;;1.37;100.00;101140.70;1860950;77;26294;-82
2021/01/01 05:16:37;;;;;;;24.67;12.93;;;;;;;1.32;100.00;101132.85;1860984;77;26666;-81
2021/01/01 05:19:12;;;;;;;24.77;12.93;;;;;;;1.27;100.00;101134.87;1860998;77;26228;-80
2021/01/01 05:21:42;;;;;;;24.57;13.07;;;;;;;1.26;100.00;101129.08;1861005;77;26376;-81
2021/01/01 05:24:16;;;;;;;22.43;13.63;;;;;;;1.22;100.00;101130.57;1860969;77;26240;-81
2021/01/01 05:26:49;;;;;;;24.83;13.07;;;;;;;1.18;100.00;101128.48;1861006;77;26755;-81
2021/01/01 05:29:24;;;;;;;23.67;12.97;;;;;;;1.27;100.00;101132.66;1860944;77;26319;-80
2021/01/01 05:31:54;;;;;;;23.67;13.60;;;;;;;1.33;100.00;101135.34;1861205;76;26212;-79
2021/01/01 05:34:25;;;;;;;24.93;13.43;;;;;;;1.22;100.00;101139.30;1860840;77;26675;-80
2021/01/01 05:36:55;;;;;;;21.60;13.13;;;;;;;1.20;100.00;101131.83;1860943;77;26216;-80
2021/01/01 05:39:25;;;;;;;23.10;13.27;;;;;;;1.26;100.00;101133.70;1860896;77;26279;-80
2021/01/01 05:41:55;;;;;;;27.73;14.33;;;;;;;1.22;100.00;101129.73;1861033;77;26662;-80
2021/01/01 05:44:28;;;;;;;24.30;14.13;;;;;;;1.10;100.00;101128.20;1860804;77;26372;-79
2021/01/01 05:47:04;;;;;;;23.40;13.83;;;;;;;1.09;100.00;101134.73;1861037;77;26278;-79
2021/01/01 05:49:37;;;;;;;28.37;14.80;;;;;;;1.17;100.00;101130.38;1861132;77;26228;-79
2021/01/01 05:52:12;;;;;;;27.47;15.40;;;;;;;1.24;100.00;101134.47;1860949;77;26632;-80
2021/01/01 05:54:43;;;;;;;27.20;15.13;;;;;;;1.19;100.00;101138.37;1860961;77;26227;-81
2021/01/01 05:57:14;;;;;;;26.27;14.77;;;;;;;1.37;100.00;101144.80;1860928;77;26228;-80
2021/01/01 05:59:47;;;;;;;25.60;14.53;;;;;;;1.28;100.00;101146.10;1860964;77;26231;-80
2021/01/01 06:02:17;;;;;;;27.07;14.77;;;;;;;1.18;100.00;101143.53;1860992;77;26286;-80
2021/01/01 06:04:49;;;;;;;27.30;15.37;;;;;;;1.24;100.00;101140.75;1860976;77;26224;-81
2021/01/01 06:07:21;;;;;;;25.50;14.20;;;;;;;1.32;100.00;101150.11;1860954;77;26345;-80
2021/01/01 06:09:54;;;;;;;26.80;14.43;;;;;;;1.45;100.00;101146.47;1860916;77;26212;-80
2021/01/01 06:12:27;;;;;;;27.30;13.90;;;;;;;1.30;100.00;101149.48;1860983;77;26248;-80
2021/01/01 06:15:00;;;;;;;26.30;15.23;;;;;;;1.38;100.00;101151.95;1861077;77;26371;-79
2021/01/01 06:17:43;;;;;;;25.87;14.63;;;;;;;1.41;100.00;101149.34;1860936;77;26379;-81
2021/01/01 06:20:17;;;;;;;27.07;15.40;;;;;;;1.48;100.00;101154.23;1861458;76;26235;-81
2021/01/01 06:23:01;;;;;;;30.77;16.00;;;;;;;1.49;100.00;101157.30;1860974;77;26248;-81
2021/01/01 06:25:31;;;;;;;27.83;15.50;;;;;;;1.50;100.00;101161.69;1860954;77;26229;-80
2021/01/01 06:28:01;;;;;;;29.13;15.80;;;;;;;1.63;100.00;101166.25;1860983;77;26287;-80
2021/01/01 06:30:31;;;;;;;32.03;16.03;;;;;;;1.47;100.00;101168.97;1860968;77;26287;-81
2021/01/01 06:33:03;;;;;;;31.27;16.03;;;;;;;1.52;100.00;101171.91;1861029;77;26643;-80
2021/01/01 06:35:35;;;;;;;31.43;15.50;;;;;;;1.42;100.00;101172.89;1861059;76;26205;-81
2021/01/01 06:38:04;;;;;;;32.07;16.27;;;;;;;1.40;100.00;101169.55;1861612;76;26228;-79
2021/01/01 06:40:37;;;;;;;31.93;17.00;;;;;;;1.51;100.00;101172.95;1860815;77;26220;-80
2021/01/01 06:43:09;;;;;;;32.00;16.73;;;;;;;1.53;100.00;101180.44;1860844;77;26227;-80
2021/01/01 06:45:44;;;;;;;28.70;15.77;;;;;;;1.52;100.00;101169.69;1860944;77;26298;-80
2021/01/01 06:48:16;;;;;;;33.03;16.67;;;;;;;1.51;100.00;101171.58;1860973;77;26228;-80
2021/01/01 06:50:48;;;;;;;31.47;16.87;;;;;;;1.57;100.00;101173.46;1863530;76;26212;-81
2021/01/01 06:53:19;;;;;;;31.70;16.47;;;;;;;1.45;100.00;101174.36;1860998;77;26216;-80
2021/01/01 06:55:50;;;;;;;35.10;16.80;;;;;;;1.42;100.00;101176.15;1860869;77;26212;-81
2021/01/01 06:58:26;;;;;;;32.40;17.20;;;;;;;1.40;100.00;101175.02;1860980;77;26271;-81
2021/01/01 07:01:00;;;;;;;34.07;17.03;;;;;;;1.43;100.00;101184.16;1860915;77;26675;-80
2021/01/01 07:03:40;;;;;;;30.97;17.07;;;;;;;1.43;100.00;101190.16;1860913;77;26959;-81
2021/01/01 07:06:41;;;;;;;36.53;17.70;;;;;;;1.55;100.00;101196.62;1861014;77;26267;-80
2021/01/01 07:09:15;;;;;;;36.00;17.27;;;;;;;1.65;100.00;101199.22;1860883;77;26228;-80
2021/01/01 07:11:45;;;;;;;35.03;16.70;;;;;;;1.62;100.00;101198.30;1861034;77;26275;-79
2021/01/01 07:14:21;;;;;;;35.67;16.07;;;;;;;1.58;100.00;101208.00;1860816;77;26333;-79
2021/01/01 07:16:54;;;;;;;34.97;17.60;;;;;;;1.54;100.00;101205.91;1861016;77;26224;-80
2021/01/01 07:19:24;;;;;;;32.00;16.23;;;;;;;1.55;100.00;101208.41;1860884;77;26287;-78
2021/01/01 07:21:54;;;;;;;33.90;17.60;;;;;;;1.54;100.00;101199.87;1861005;77;26208;-79
2021/01/01 07:24:25;;;;;;;30.87;16.23;;;;;;;1.57;100.00;101203.58;1860944;77;26828;-78
2021/01/01 07:26:58;;;;;;;33.93;16.73;;;;;;;1.65;100.00;101212.06;1860872;77;26227;-80
2021/01/01 07:29:28;;;;;;;35.60;17.73;;;;;;;1.76;100.00;101213.58;1860990;77;26236;-80
2021/01/01 07:31:59;;;;;;;32.07;16.30;;;;;;;1.83;100.00;101214.40;1860874;77;26314;-79
2021/01/01 07:34:29;;;;;;;32.70;16.83;;;;;;;1.85;100.00;101215.53;1860987;77;26670;-80
2021/01/01 07:37:02;;;;;;;32.53;17.73;;;;;;;1.76;100.00;101212.73;1860912;77;26723;-81
2021/01/01 07:39:32;;;;;;;30.83;16.13;;;;;;;1.77;100.00;101218.52;1860842;77;26775;-80
2021/01/01 07:42:08;;;;;;;33.33;16.40;;;;;;;1.73;100.00;101220.87;1860863;77;26671;-81
2021/01/01 07:44:38;;;;;;;36.20;17.80;;;;;;;1.80;100.00;101216.19;1861028;77;26352;-78
2021/01/01 07:47:12;;;;;;;30.60;16.57;;;;;;;1.96;100.00;101229.08;1860917;77;26205;-82
2021/01/01 07:49:42;;;;;;;34.03;16.37;;;;;;;1.88;100.00;101221.96;1860839;77;26224;-80
2021/01/01 07:52:15;;;;;;;32.37;16.57;;;;;;;1.87;100.00;101226.28;1860820;77;26310;-81
2021/01/01 07:54:49;;;;;;;28.33;15.00;;;;;;;1.98;100.00;101231.05;1860883;77;26217;-81
2021/01/01 07:57:24;;;;;;;31.90;17.13;;;;;;;1.84;100.00;101234.38;1860974;77;26298;-83
2021/01/01 07:59:57;;;;;;;27.90;16.63;;;;;;;1.89;100.00;101232.36;1860989;77;26309;-81
2021/01/01 08:02:27;;;;;;;29.17;16.53;;;;;;;1.98;100.00;101232.42;1861017;77;26286;-82
2021/01/01 08:04:58;;;;;;;31.70;17.03;;;;;;;1.91;100.00;101234.36;1860954;77;26753;-82
2021/01/01 08:07:28;;;;;;;31.87;16.57;;;;;;;2.09;100.00;101235.84;1861013;77;26216;-83
2021/01/01 08:09:58;;;;;;;28.10;16.17;;;;;;;2.19;100.00;101237.55;1860997;77;26685;-82
2021/01/01 08:12:28;;;;;;;29.20;16.33;;;;;;;2.13;100.00;101241.20;1861057;77;26653;-82
2021/01/01 08:14:58;;;;;;;28.37;16.83;;;;;;;1.95;100.00;101234.23;1860989;77;26690;-82
2021/01/01 08:17:29;;;;;;;32.53;17.50;;;;;;;2.09;100.00;101240.80;1861112;77;26271;-82
2021/01/01 08:20:00;;;;;;;31.10;16.17;;;;;;;2.04;100.00;101247.46;1861107;77;26326;-81
2021/01/01 08:22:33;;;;;;;28.40;15.77;;;;;;;2.05;100.00;101247.78;1860893;77;26293;-82
2021/01/01 08:25:04;;;;;;;35.80;16.80;;;;;;;2.12;100.00;101244.98;1861006;76;26236;-80
2021/01/01 08:27:34;;;;;;;32.23;18.10;;;;;;;2.24;100.00;101250.06;1860884;77;26244;-81
2021/01/01 08:30:07;;;;;;;30.37;18.70;;;;;;;2.16;100.00;101250.33;1860952;77;26753;-80
2021/01/01 08:32:40;;;;;;;35.07;19.23;;;;;;;2.21;100.00;101247.25;1860932;77;26671;-79
2021/01/01 08:35:13;;;;;;;33.73;17.70;;;;;;;2.22;100.00;101248.09;1860991;77;26679;-82
2021/01/01 08:37:43;;;;;;;29.97;17.57;;;;;;;2.26;100.00;101253.45;1861017;77;26648;-82
2021/01/01 08:40:15;;;;;;;35.23;19.73;;;;;;;2.17;100.00;101261.09;1861051;77;26694;-82
2021/01/01 08:42:45;;;;;;;36.77;19.33;;;;;;;2.25;100.00;101257.23;1861016;77;26290;-80
2021/01/01 08:45:18;;;;;;;32.27;19.37;;;;;;;2.20;100.00;101256.52;1861008;77;26279;-80
2021/01/01 08:47:50;;;;;;;33.17;19.53;;;;;;;2.18;100.00;101262.74;1860998;77;26208;-80
2021/01/01 08:50:25;;;;;;;39.03;20.90;;;;;;;2.23;100.00;101260.19;1860840;77;26639;-82
2021/01/01 08:53:02;;;;;;;36.87;18.67;;;;;;;2.14;100.00;101260.70;1860948;77;26223;-81
2021/01/01 08:55:32;;;;;;;35.57;21.00;;;;;;;2.26;100.00;101262.51;1860939;77;26738;-83
2021/01/01 08:58:10;;;;;;;37.43;19.30;;;;;;;2.26;100.00;101264.41;1861073;77;26242;-81
2021/01/01 09:00:42;;;;;;;35.87;20.37;;;;;;;2.33;100.00;101265.19;1861159;77;26263;-82
2021/01/01 09:03:12;;;;;;;34.97;19.60;;;;;;;2.16;100.00;101266.78;1861129;77;26298;-82
2021/01/01 09:05:42;;;;;;;32.83;18.37;;;;;;;2.23;100.00;101266.20;1860995;77;26222;-79
2021/01/01 09:08:13;;;;;;;34.17;18.87;;;;;;;2.17;100.00;101258.88;1860982;77;26309;-82
2021/01/01 09:10:45;;;;;;;34.10;19.60;;;;;;;2.21;100.00;101255.47;1860890;77;26303;-79
2021/01/01 09:13:17;;;;;;;36.77;18.80;;;;;;;2.26;100.00;101258.92;1860864;77;26235;-82
2021/01/01 09:15:49;;;;;;;36.10;20.33;;;;;;;2.30;100.00;101273.86;1861018;77;26264;-81
2021/01/01 09:18:19;;;;;;;41.70;20.00;;;;;;;2.33;100.00;101272.57;1860928;77;26666;-82
2021/01/01 09:20:49;;;;;;;38.23;21.47;;;;;;;2.35;100.00;101269.09;1860999;77;26293;-81
2021/01/01 09:23:20;;;;;;;39.07;20.47;;;;;;;2.34;100.00;101276.47;1860949;77;26426;-81
2021/01/01 09:25:50;;;;;;;41.13;21.83;;;;;;;2.21;100.00;101270.55;1861998;76;26216;-80
2021/01/01 09:28:20;;;;;;;37.47;20.53;;;;;;;2.40;100.00;101278.31;1861033;77;26293;-83
2021/01/01 09:30:51;;;;;;;35.83;20.33;;;;;;;2.45;100.00;101280.39;1860947;77;26226;-83
2021/01/01 09:33:21;;;;;;;35.43;19.87;;;;;;;2.37;100.00;101273.81;1860906;77;26364;-84
2021/01/01 09:35:52;;;;;;;40.77;20.57;;;;;;;2.38;100.00;101281.82;1861078;77;26686;-85
2021/01/01 09:38:23;;;;;;;38.70;20.93;;;;;;;2.43;100.00;101277.05;1860923;77;26328;-80
2021/01/01 09:40:53;;;;;;;34.70;19.90;;;;;;;2.57;100.00;101278.09;1860973;77;26710;-83
2021/01/01 09:43:24;;;;;;;37.10;21.30;;;;;;;2.32;100.00;101279.11;1861158;77;26227;-88
2021/01/01 09:45:54;;;;;;;38.07;21.73;;;;;;;2.40;100.00;101284.32;1860909;77;26694;-81
2021/01/01 09:48:24;;;;;;;39.00;21.03;;;;;;;2.46;100.00;101285.66;1860995;77;26650;-82
2021/01/01 09:50:53;;;;;;;39.50;20.97;;;;;;;2.26;100.00;101287.17;1860907;77;26679;-79
2021/01/01 09:53:23;;;;;;;44.40;22.67;;;;;;;2.22;100.00;101286.46;1860818;77;26239;-82
2021/01/01 09:55:53;;;;;;;39.23;22.47;;;;;;;2.38;100.00;101289.20;1861017;77;26286;-80
2021/01/01 09:58:23;;;;;;;40.30;20.93;;;;;;;2.45;100.00;101285.35;1860967;77;26306;-80
2021/01/01 10:00:53;;;;;;;40.50;21.13;;;;;;;2.50;100.00;101284.16;1860859;77;26235;-80
2021/01/01 10:03:23;;;;;;;39.83;20.80;;;;;;;2.44;100.00;101282.29;1860836;77;26236;-84
2021/01/01 10:05:54;;;;;;;37.47;19.97;;;;;;;2.39;100.00;101278.03;1860807;77;26384;-85
2021/01/01 10:08:23;;;;;;;38.00;21.27;;;;;;;2.33;100.00;101280.80;1860871;77;26192;-81
2021/01/01 10:10:56;;;;;;;39.87;21.63;;;;;;;2.41;100.00;101286.02;1861009;77;26675;-83
2021/01/01 10:13:28;;;;;;;38.07;20.07;;;;;;;2.41;100.00;101293.70;1861083;77;26213;-88
2021/01/01 10:15:58;;;;;;;39.40;20.13;;;;;;;2.45;100.00;101295.47;1861217;77;26332;-89
2021/01/01 10:18:29;;;;;;;37.77;20.00;;;;;;;2.42;100.00;101292.66;1861371;77;26216;-83
2021/01/01 10:21:01;;;;;;;37.10;20.00;;;;;;;2.44;100.00;101293.25;1861075;77;26220;-83
2021/01/01 10:23:30;;;;;;;32.57;19.43;;;;;;;2.38;100.00;101300.16;1861005;77;26302;-80
2021/01/01 10:26:02;;;;;;;37.90;20.00;;;;;;;2.39;100.00;101301.33;1795250;80;26287;-79
2021/01/01 10:28:32;;;;;;;37.03;19.63;;;;;;;2.46;100.00;101304.86;1852071;77;26208;-81
2021/01/01 10:31:02;;;;;;;43.83;21.90;;;;;;;2.43;100.00;101302.56;1852134;77;26224;-80
2021/01/01 10:33:32;;;;;;;44.97;21.87;;;;;;;2.58;100.00;101300.34;1852025;77;26650;-83
2021/01/01 10:36:02;;;;;;;39.17;21.23;;;;;;;2.54;100.00;101300.48;1851946;77;26667;-85
2021/01/01 10:38:34;;;;;;;40.17;20.13;;;;;;;2.51;100.00;101294.08;1852004;77;26224;-84
2021/01/01 10:41:08;;;;;;;38.07;21.37;;;;;;;2.47;100.00;101290.63;1851973;77;26393;-86
2021/01/01 10:43:38;;;;;;;37.60;20.80;;;;;;;2.44;100.00;101298.73;1851999;77;26412;-80
2021/01/01 10:46:08;;;;;;;41.20;21.87;;;;;;;2.56;100.00;101297.00;1872206;76;26287;-89
2021/01/01 10:48:38;;;;;;;39.80;21.60;;;;;;;2.51;100.00;101298.71;1851963;77;26392;-83
2021/01/01 10:51:08;;;;;;;40.83;22.17;;;;;;;2.59;100.00;101301.18;1852076;77;26709;-83
2021/01/01 10:53:39;;;;;;;40.93;22.13;;;;;;;2.69;100.00;101301.54;1851946;77;26216;-82
2021/01/01 10:56:09;;;;;;;39.37;20.90;;;;;;;2.70;100.00;101299.92;1852035;77;26227;-81
2021/01/01 10:58:39;;;;;;;39.37;20.80;;;;;;;2.64;100.00;101301.36;1851896;77;26223;-82
2021/01/01 11:01:09;;;;;;;39.63;20.47;;;;;;;2.65;100.00;101296.20;1852052;77;26750;-80
2021/01/01 11:03:39;;;;;;;43.00;22.37;;;;;;;2.66;100.00;101295.95;1851978;77;26322;-85
2021/01/01 11:06:10;;;;;;;41.07;22.03;;;;;;;2.61;100.00;101298.52;1852120;77;26658;-83
2021/01/01 11:08:42;;;;;;;40.07;20.77;;;;;;;2.66;100.00;101290.47;1851946;77;26318;-81
2021/01/01 11:11:13;;;;;;;42.30;21.40;;;;;;;2.54;100.00;101295.52;1852020;77;26231;-82
2021/01/01 11:13:47;;;;;;;43.40;23.23;;;;;;;2.74;100.00;101294.83;1851958;77;26791;-85
2021/01/01 12:21:32;;;;;;;47.27;23.17;;;;;;;3.29;100.00;101261.52;1852012;77;26677;-83
2021/01/01 12:24:05;;;;;;;54.90;25.27;;;;;;;3.23;100.00;101254.72;1852963;76;27104;-84
2021/01/01 12:26:32;;;;;;;52.17;25.47;;;;;;;3.27;100.00;101254.56;1851594;76;26321;-84
2021/01/01 12:29:05;;;;;;;49.40;24.47;;;;;;;3.26;100.00;101247.39;1851823;77;26228;-82
2021/01/01 12:31:36;;;;;;;51.73;23.73;;;;;;;3.25;100.00;101247.95;1852150;77;26290;-92